ADDS METAR Data INFO
IDs: Format: Raw Decoded Include TAF

Data at: 0319 UTC 18 Aug 2017

KRYW 180315Z AUTO 05009KT 10SM SCT070 SCT080 27/21 A3006 RMK AO2 T02680213
KRYW 180255Z AUTO 03008KT 10SM SCT070 SCT080 27/21 A3005 RMK AO2 T02710213
KRYW 180235Z AUTO 02008KT 10SM SCT090 28/21 A3003 RMK AO2 T02760211
KRYW 180215Z AUTO 01010G17KT 10SM BKN080 OVC090 29/21 A3002 RMK AO2 T02910206
KRYW 180155Z AUTO 17003KT 10SM SCT080 32/17 A3001 RMK AO2 T03200174
KRYW 180135Z AUTO 00000KT 10SM CLR 32/18 A3001 RMK AO2 T03190176
KRYW 180115Z AUTO 19004KT 10SM CLR 32/18 A3000 RMK AO2 T03200176
KRYW 180055Z AUTO 18003KT 10SM CLR 33/18 A3000 RMK AO2 T03250178
KRYW 180035Z AUTO 17004KT 10SM CLR 32/18 A3000 RMK AO2 T03230181
KRYW 180015Z AUTO 16004KT 10SM CLR 33/18 A2999 RMK AO2 LTG DSNT N T03300182
KRYW 172355Z AUTO 16005KT 10SM CLR 34/18 A2997 RMK AO2 LTG DSNT N T03420181 10362 20334
KRYW 172335Z AUTO 15006KT 10SM CLR 35/18 A2997 RMK AO2 LTG DSNT N T03490175
KRYW 172315Z AUTO 16005KT 10SM SCT065 35/18 A2997 RMK AO2 LTG DSNT N AND W T03500175
KRYW 172255Z AUTO 15008G14KT 10SM SCT065 35/18 A2996 RMK AO2 T03530184
KRYW 172235Z AUTO 18007KT 10SM CLR 36/18 A2996 RMK AO2 T03580179
KRYW 172215Z AUTO 19004KT 10SM CLR 36/18 A2998 RMK AO2 T03620180
KRYW 172155Z AUTO 21004G15KT 10SM CLR 36/18 A2998 RMK AO2 LTG DSNT NW T03600177
KRYW 172135Z AUTO 18008G18KT 10SM CLR 36/18 A2999 RMK AO2 T03590182
KRYW 172115Z AUTO 16008G18KT 10SM CLR 36/18 A2999 RMK AO2 T03580182
KRYW 172055Z AUTO 15008G14KT 120V180 10SM CLR 36/19 A2999 RMK AO2 T03580187
KRYW 172035Z AUTO 17009KT 130V200 10SM CLR 36/19 A2999 RMK AO2 T03550193
KRYW 172015Z AUTO 20010G14KT 160V230 10SM CLR 36/19 A3001 RMK AO2 T03580192
KRYW 171955Z AUTO 20005KT 10SM SCT055 35/20 A3002 RMK AO2 T03540195
KRYW 171935Z AUTO 20005KT 10SM CLR 35/20 A3004 RMK AO2 T03480200
KRYW 171915Z AUTO 19008KT 160V220 10SM SCT050 35/20 A3005 RMK AO2 T03520204
KRYW 171855Z AUTO 20004G15KT 10SM CLR 35/20 A3005 RMK AO2 T03450200
KRYW 171835Z AUTO 19008KT 150V210 10SM CLR 35/21 A3006 RMK AO2 T03460205
KRYW 171815Z AUTO 21006KT 10SM CLR 34/21 A3006 RMK AO2 T03390208
KRYW 171755Z AUTO 19009G14KT 10SM CLR 33/21 A3007 RMK AO2 T03340212 10335 20262
KRYW 171735Z AUTO 19009KT 10SM CLR 33/21 A3007 RMK AO2 T03300214
KRYW 171715Z AUTO 19008G15KT 10SM CLR 33/22 A3007 RMK AO2 T03250219
KRYW 171655Z AUTO 19011KT 150V220 32/22 A3007 RMK AO2 T03220220 PWINO
KRYW 171635Z AUTO 18009KT 10SM CLR 32/23 A3008 RMK AO2 T03200226
KRYW 171615Z AUTO 17008KT 140V200 10SM SCT026 32/23 A3008 RMK AO2 T03150225
KRYW 171555Z AUTO 18009G14KT 10SM BKN026 31/23 A3008 RMK AO2 T03070225
KRYW 171535Z AUTO 20009G14KT 170V240 10SM OVC024 31/23 A3008 RMK AO2 T03060228
KRYW 171515Z AUTO 21008G15KT 180V240 10SM BKN022 30/23 A3007 RMK AO2 T02970231
KRYW 171455Z AUTO 20010KT 10SM BKN020 BKN026 29/23 A3007 RMK AO2 T02910233
KRYW 171435Z AUTO 21006G15KT 10SM BKN018 28/23 A3007 RMK AO2 T02780234
KRYW 171415Z AUTO 20008KT 10SM BKN015 28/24 A3007 RMK AO2 T02770236
KRYW 171355Z AUTO 21006KT 10SM SCT013 27/24 A3006 RMK AO2 T02700235
KRYW 171335Z AUTO 20007KT 10SM CLR 27/24 A3006 RMK AO2 T02660235
KRYW 171315Z AUTO 19007KT 10SM CLR 27/23 A3006 RMK AO2 T02650233
KRYW 171255Z AUTO 21005KT 10SM CLR 26/23 A3006 RMK AO2 T02630231
KRYW 171235Z AUTO 21005KT 10SM SCT017 SCT023 26/23 A3005 RMK AO2 T02630230
KRYW 171215Z AUTO 22007KT 10SM SCT017 SCT023 26/23 A3005 RMK AO2 T02630230
KRYW 171155Z AUTO 21008KT 10SM BKN019 BKN023 27/23 A3004 RMK AO2 T02650230 10275 20263
KRYW 171135Z AUTO 20009KT 10SM BKN019 27/23 A3003 RMK AO2 T02660230
KRYW 171115Z AUTO 21010G17KT 10SM OVC019 27/23 A3003 RMK AO2 T02670230
KRYW 171055Z AUTO 20008G17KT 10SM BKN017 27/23 A3003 RMK AO2 T02670232
KRYW 171035Z AUTO 20011G18KT 10SM BKN019 27/23 A3003 RMK AO2 T02660231
KRYW 171015Z AUTO 19010G16KT 10SM -RA SCT019 26/23 A3002 RMK AO2 T02630232
KRYW 170955Z AUTO 19012G18KT 10SM -RA SCT019 27/23 A3002 RMK AO2 T02680232
KRYW 170935Z AUTO 19014G18KT 10SM BKN019 27/23 A3002 RMK AO2 LTG DSNT N T02700232
KRYW 170915Z AUTO 20010G15KT 10SM OVC019 27/23 A3002 RMK AO2 T02710232
KRYW 170855Z AUTO 20009G14KT 10SM OVC017 27/24 A3002 RMK AO2 T02710235
KRYW 170835Z AUTO 19007KT 10SM OVC015 27/24 A3002 RMK AO2 T02710235
KRYW 170815Z AUTO 19008KT 10SM OVC015 27/24 A3002 RMK AO2 T02710236
KRYW 170755Z AUTO 20007KT 10SM OVC015 27/24 A3001 RMK AO2 T02710237
KRYW 170735Z AUTO 19005KT 10SM OVC015 27/24 A3000 RMK AO2 T02710236
KRYW 170715Z AUTO 19011KT 10SM OVC015 27/24 A3000 RMK AO2 T02710236
KRYW 170655Z AUTO 19009G16KT 10SM OVC015 27/24 A3000 RMK AO2 T02710236
KRYW 170635Z AUTO 18009G15KT 10SM OVC017 27/24 A3000 RMK AO2 T02730236
KRYW 170615Z AUTO 18009KT 10SM BKN017 27/23 A3000 RMK AO2 T02730233
KRYW 170555Z AUTO 18008G18KT 10SM SCT019 28/23 A3000 RMK AO2 T02750230 10345 20275 403570260
KRYW 170535Z AUTO 17006G16KT 130V220 10SM CLR 28/23 A3000 RMK AO2 T02770227
KRYW 170515Z AUTO 17009G15KT 130V190 10SM CLR 28/23 A2998 RMK AO2 T02800225
KRYW 170455Z AUTO 18008G16KT 150V210 10SM CLR 28/22 A2998 RMK AO2 T02830224
KRYW 170435Z AUTO 18010G18KT 10SM CLR 29/22 A2998 RMK AO2 T02870221
KRYW 170415Z AUTO 16008G16KT 120V210 10SM CLR 29/22 A2998 RMK AO2 LTG DSNT W T02900220
KRYW 170355Z AUTO 16009G14KT 10SM CLR 29/22 A2997 RMK AO2 T02930218
KRYW 170335Z AUTO 16006G19KT 10SM CLR 30/22 A2997 RMK AO2 T02970216
KRYW 170315Z AUTO 16013G20KT 10SM CLR 30/21 A2996 RMK AO2 T03010214
KRYW 170255Z AUTO 17009G16KT 10SM CLR 31/21 A2996 RMK AO2 LTG DSNT SW T03050212
KRYW 170235Z AUTO 16011G20KT 10SM CLR 31/21 A2996 RMK AO2 T03100211
KRYW 170215Z AUTO 15009G16KT 130V190 10SM CLR 32/21 A2996 RMK AO2 T03150207
KRYW 170155Z AUTO 16009KT 10SM SCT065 32/21 A2994 RMK AO2 T03200206
KRYW 170135Z AUTO 17006KT 10SM SCT065 32/20 A2994 RMK AO2 T03200203
KRYW 170115Z AUTO 17006KT 10SM CLR 32/20 A2993 RMK AO2 T03200195
KRYW 170055Z AUTO 20004KT 10SM CLR 33/19 A2992 RMK AO2 T03250193
KRYW 170035Z AUTO 17007KT 10SM CLR 33/19 A2991 RMK AO2 T03320190
KRYW 170015Z AUTO 19007KT 10SM CLR 34/19 A2991 RMK AO2 T03390186
KRYW 162355Z AUTO 20006KT 170V230 10SM CLR 35/19 A2991 RMK AO2 T03450187 10357 20321
KRYW 162335Z AUTO 18008KT 160V220 10SM CLR 35/19 A2992 RMK AO2 LTG DSNT NW T03470186
KRYW 162315Z AUTO 17006KT 10SM CLR 35/19 A2992 RMK AO2 T03480187
KRYW 162255Z AUTO 16005KT 10SM CLR 35/19 A2992 RMK AO2 T03510190
KRYW 162235Z AUTO 17009G15KT 10SM CLR 35/19 A2992 RMK AO2 T03500191
KRYW 162215Z AUTO 14004KT 10SM CLR 35/20 A2992 RMK AO2 T03530195
KRYW 162155Z AUTO 17011G16KT 10SM SCT055 35/20 A2993 RMK AO2 T03520196
KRYW 162135Z AUTO 20004KT 10SM SCT055 36/20 A2993 RMK AO2 T03550200
KRYW 162115Z AUTO 19009G16KT 170V230 10SM SCT055 35/20 A2993 RMK AO2 T03490197
KRYW 162055Z AUTO 18007G15KT 140V210 10SM SCT055 35/20 A2993 RMK AO2 T03500200
KRYW 162035Z AUTO 21008G19KT 10SM SCT055 35/19 A2994 RMK AO2 T03460194
KRYW 162015Z AUTO 18008G17KT 130V200 10SM SCT049 35/19 A2995 RMK AO2 T03460194
KRYW 161955Z AUTO 19011G17KT 10SM SCT049 34/20 A2995 RMK AO2 T03400197
KRYW 161935Z AUTO 18010G19KT 140V200 10SM SCT049 34/20 A2996 RMK AO2 T03400199
KRYW 161915Z AUTO 19009G17KT 10SM SCT047 34/20 A2997 RMK AO2 T03380201
KRYW 161855Z AUTO 20008G15KT 10SM SCT045 33/21 A2997 RMK AO2 T03340205
KRYW 161835Z AUTO 22007G17KT 180V240 10SM SCT043 33/20 A2998 RMK AO2 T03300203
KRYW 161815Z AUTO 20009G15KT 10SM SCT041 33/20 A2999 RMK AO2 T03270204
KRYW 161755Z AUTO 19013G18KT 160V220 10SM SCT041 33/21 A3000 RMK AO2 T03260207 10326 20261
KRYW 161735Z AUTO 18011G19KT 10SM SCT039 32/21 A3000 RMK AO2 T03210206
KRYW 161715Z AUTO 17010G17KT 140V210 10SM SCT037 32/21 A3000 RMK AO2 T03200208
KRYW 161655Z AUTO 20009G21KT 170V230 10SM SCT037 32/21 A3000 RMK AO2 T03150205
KRYW 161635Z AUTO 19016G19KT 10SM SCT035 31/20 A3000 RMK AO2 T03120203
KRYW 161615Z AUTO 20010G19KT 170V230 10SM SCT028 SCT034 31/21 A3000 RMK AO2 T03080207
KRYW 161555Z AUTO 19013G19KT 10SM SCT028 SCT034 30/21 A3000 RMK AO2 T03020211
KRYW 161535Z AUTO 20011G20KT 10SM SCT028 BKN034 30/21 A3000 RMK AO2 T02990214